createdAt,value
2023-06-23T00:00:29.845Z,16.66
2023-06-23T00:02:56.523Z,16.78
2023-06-23T00:05:23.258Z,16.83
2023-06-23T00:07:49.847Z,16.69
2023-06-23T00:10:16.444Z,16.72
2023-06-23T00:12:44.529Z,16.70
2023-06-23T00:15:13.013Z,16.85
2023-06-23T00:17:41.292Z,16.89
2023-06-23T00:20:09.274Z,16.83
2023-06-23T00:22:36.211Z,16.88
2023-06-23T00:25:03.025Z,16.89
2023-06-23T00:27:29.602Z,16.91
2023-06-23T00:29:57.801Z,16.86
2023-06-23T00:32:24.431Z,16.80
2023-06-23T00:34:51.016Z,16.87
2023-06-23T00:37:17.588Z,16.89
2023-06-23T00:39:44.171Z,16.82
2023-06-23T00:42:10.751Z,16.88
2023-06-23T00:44:37.381Z,16.86
2023-06-23T00:47:05.755Z,16.78
2023-06-23T00:49:34.268Z,16.85
2023-06-23T00:52:03.361Z,16.76
2023-06-23T00:54:32.163Z,16.82
2023-06-23T00:56:58.945Z,16.80
2023-06-23T00:59:28.321Z,16.87
2023-06-23T01:01:57.953Z,16.85
2023-06-23T01:04:26.617Z,16.79
2023-06-23T01:07:02.299Z,16.88
2023-06-23T01:09:37.829Z,16.90
2023-06-23T01:12:08.504Z,16.81
2023-06-23T01:14:39.699Z,16.80
2023-06-23T01:17:12.105Z,16.68
2023-06-23T01:19:52.997Z,16.67
2023-06-23T01:22:27.933Z,16.59
2023-06-23T01:25:06.249Z,16.53
2023-06-23T01:27:58.589Z,16.66
2023-06-23T01:30:29.677Z,16.67
2023-06-23T01:33:02.883Z,16.66
2023-06-23T01:35:33.622Z,16.49
2023-06-23T01:38:07.325Z,16.65
2023-06-23T01:40:38.348Z,16.61
2023-06-23T01:43:07.619Z,16.56
2023-06-23T01:45:36.876Z,16.60
2023-06-23T01:48:07.799Z,16.63
2023-06-23T01:50:35.805Z,16.60
2023-06-23T01:53:04.136Z,16.59
2023-06-23T01:55:32.580Z,16.59
2023-06-23T01:58:01.520Z,16.62
2023-06-23T02:00:29.859Z,16.61
2023-06-23T02:03:00.800Z,16.59
2023-06-23T02:05:29.531Z,16.66
2023-06-23T02:07:58.455Z,16.69
2023-06-23T02:10:26.400Z,16.72
2023-06-23T02:12:56.213Z,16.72
2023-06-23T02:15:24.854Z,16.73
2023-06-23T02:17:54.653Z,16.69
2023-06-23T02:20:24.256Z,16.93
2023-06-23T02:22:52.641Z,17.01
2023-06-23T02:25:20.619Z,16.92
2023-06-23T02:27:47.470Z,16.91
2023-06-23T02:30:15.866Z,16.86
2023-06-23T02:32:42.539Z,16.98
2023-06-23T02:35:11.187Z,17.01
2023-06-23T02:37:42.365Z,16.89
2023-06-23T02:40:12.353Z,16.83
2023-06-23T02:42:44.302Z,16.83
2023-06-23T02:45:17.959Z,16.87
2023-06-23T02:47:47.296Z,16.83
2023-06-23T02:50:16.281Z,17.03
2023-06-23T02:52:47.276Z,16.79
2023-06-23T02:55:19.463Z,16.89
2023-06-23T02:57:50.683Z,16.70
2023-06-23T03:00:20.162Z,16.86
2023-06-23T03:02:52.409Z,17.08
2023-06-23T03:05:19.207Z,17.11
2023-06-23T03:07:47.191Z,17.25
2023-06-23T03:10:14.246Z,17.09
2023-06-23T03:12:40.870Z,17.23
2023-06-23T03:15:08.467Z,17.18
2023-06-23T03:17:38.200Z,17.24
2023-06-23T03:20:08.564Z,17.28
2023-06-23T03:22:42.982Z,17.32
2023-06-23T03:25:15.131Z,17.25
2023-06-23T03:27:43.861Z,17.26
2023-06-23T03:30:13.238Z,17.39
2023-06-23T03:32:44.115Z,17.36
2023-06-23T03:35:14.500Z,17.36
2023-06-23T03:37:50.561Z,17.33
2023-06-23T03:40:21.593Z,17.32
2023-06-23T03:42:52.826Z,17.30
2023-06-23T03:45:22.984Z,17.26
2023-06-23T03:47:53.217Z,17.08
2023-06-23T03:50:25.917Z,17.28
2023-06-23T03:52:54.979Z,17.39
2023-06-23T03:55:24.189Z,17.39
2023-06-23T03:57:53.286Z,17.34
2023-06-23T04:00:22.831Z,17.42
2023-06-23T04:02:51.399Z,17.31
2023-06-23T04:05:21.356Z,17.36
2023-06-23T04:07:50.977Z,17.44
2023-06-23T04:10:21.045Z,17.27
2023-06-23T04:12:51.089Z,17.33
2023-06-23T04:15:20.676Z,17.44
2023-06-23T04:17:48.579Z,17.33
2023-06-23T04:20:16.443Z,17.32
2023-06-23T04:22:46.394Z,17.29
2023-06-23T04:25:15.958Z,17.27
2023-06-23T04:27:46.271Z,17.24
2023-06-23T04:30:15.705Z,17.20
2023-06-23T04:32:44.169Z,17.11
2023-06-23T04:35:11.209Z,17.16
2023-06-23T04:37:41.591Z,17.25
2023-06-23T04:40:12.541Z,17.25
2023-06-23T04:42:44.983Z,17.29
2023-06-23T04:45:17.428Z,17.22
2023-06-23T04:47:47.818Z,17.44
2023-06-23T04:50:16.680Z,17.41
2023-06-23T04:52:49.336Z,17.34
2023-06-23T04:55:19.515Z,17.34
2023-06-23T04:57:47.479Z,17.37
2023-06-23T05:00:21.358Z,17.35
2023-06-23T05:02:49.688Z,17.39
2023-06-23T05:05:21.126Z,17.41
2023-06-23T05:07:49.548Z,17.27
2023-06-23T05:10:17.096Z,17.24
2023-06-23T05:12:45.836Z,17.26
2023-06-23T05:15:13.164Z,17.39
2023-06-23T05:17:42.147Z,17.50
2023-06-23T05:20:10.883Z,17.48
2023-06-23T05:22:39.387Z,17.51
2023-06-23T05:25:07.984Z,17.61
2023-06-23T05:27:36.952Z,17.45
2023-06-23T05:30:09.939Z,17.44
2023-06-23T05:32:39.490Z,17.29
2023-06-23T05:35:10.212Z,17.46
2023-06-23T05:37:39.615Z,17.51
2023-06-23T05:40:09.659Z,17.58
2023-06-23T05:42:36.349Z,17.66
2023-06-23T05:45:04.105Z,17.62
2023-06-23T05:47:36.582Z,17.78
2023-06-23T05:50:12.592Z,17.77
2023-06-23T05:52:45.818Z,17.94
2023-06-23T05:55:13.025Z,18.00
2023-06-23T05:57:42.475Z,18.07
2023-06-23T06:00:11.878Z,18.11
2023-06-23T06:02:41.150Z,18.15
2023-06-23T06:05:12.339Z,18.28
2023-06-23T06:07:39.507Z,18.16
2023-06-23T06:10:09.495Z,18.24
2023-06-23T06:12:38.468Z,18.32
2023-06-23T06:15:06.763Z,18.11
2023-06-23T06:17:35.015Z,18.20
2023-06-23T06:20:05.076Z,18.25
2023-06-23T06:22:36.767Z,18.27
2023-06-23T06:25:07.024Z,18.14
2023-06-23T06:27:34.732Z,18.33
2023-06-23T06:30:02.595Z,18.37
2023-06-23T06:32:33.353Z,18.49
2023-06-23T06:35:01.541Z,18.62
2023-06-23T06:37:29.126Z,18.63
2023-06-23T06:39:58.838Z,18.73
2023-06-23T06:42:25.457Z,18.67
2023-06-23T06:44:52.073Z,18.79
2023-06-23T06:47:22.027Z,18.77
2023-06-23T06:49:50.539Z,19.07
2023-06-23T06:52:18.908Z,19.05
2023-06-23T06:54:45.727Z,19.05
2023-06-23T06:57:14.594Z,19.05
2023-06-23T06:59:42.023Z,19.12
2023-06-23T07:02:11.314Z,19.32
2023-06-23T07:04:40.210Z,19.17
2023-06-23T07:07:06.855Z,19.23
2023-06-23T07:09:33.427Z,19.10
2023-06-23T07:12:00.000Z,19.33
2023-06-23T07:14:27.900Z,19.40
2023-06-23T07:16:54.537Z,19.24
2023-06-23T07:19:21.088Z,19.24
2023-06-23T07:21:47.647Z,19.15
2023-06-23T07:24:14.246Z,19.33
2023-06-23T07:26:40.842Z,19.39
2023-06-23T07:29:09.000Z,19.33
2023-06-23T07:31:38.393Z,19.43
2023-06-23T07:34:05.427Z,19.71
2023-06-23T07:36:32.451Z,19.74
2023-06-23T07:38:59.016Z,19.68
2023-06-23T07:41:25.642Z,19.67
2023-06-23T07:43:52.171Z,19.80
2023-06-23T07:46:18.836Z,19.60
2023-06-23T07:48:46.842Z,19.55
2023-06-23T07:51:13.498Z,19.56
2023-06-23T07:53:40.138Z,19.76
2023-06-23T07:56:06.999Z,19.95
2023-06-23T07:58:33.903Z,19.83
2023-06-23T08:01:00.521Z,19.96
2023-06-23T08:03:27.378Z,19.94
2023-06-23T08:05:55.507Z,20.13
2023-06-23T08:08:22.077Z,20.04
2023-06-23T08:10:48.671Z,19.99
2023-06-23T08:13:15.535Z,19.87
2023-06-23T08:15:42.433Z,20.05
2023-06-23T08:18:09.346Z,19.76
2023-06-23T08:20:36.016Z,19.67
2023-06-23T08:23:03.984Z,19.88
2023-06-23T08:25:31.091Z,19.97
2023-06-23T08:27:57.755Z,19.86
2023-06-23T08:30:27.890Z,19.97
2023-06-23T08:32:54.469Z,20.43
2023-06-23T08:35:21.176Z,20.64
2023-06-23T08:37:47.984Z,20.53
2023-06-23T08:40:16.359Z,20.73
2023-06-23T08:42:43.157Z,20.75
2023-06-23T08:45:12.491Z,20.57
2023-06-23T08:47:45.656Z,20.82
2023-06-23T08:50:12.632Z,20.58
2023-06-23T08:52:41.655Z,20.69
2023-06-23T08:55:10.763Z,20.81
2023-06-23T08:57:39.014Z,21.14
2023-06-23T09:00:07.577Z,21.04
2023-06-23T09:02:34.188Z,21.08
2023-06-23T09:05:01.070Z,20.93
2023-06-23T09:07:27.659Z,21.02
2023-06-23T09:09:54.252Z,21.37
2023-06-23T09:12:20.830Z,21.36
2023-06-23T09:14:49.261Z,21.61
2023-06-23T09:17:16.738Z,21.24
2023-06-23T09:19:43.947Z,21.07
2023-06-23T09:22:11.616Z,21.02
2023-06-23T09:24:42.157Z,21.15
2023-06-23T09:27:08.745Z,21.15
2023-06-23T09:29:35.308Z,20.97
2023-06-23T09:32:03.284Z,20.98
2023-06-23T09:34:31.183Z,20.91
2023-06-23T09:37:06.742Z,21.22
2023-06-23T09:39:34.358Z,21.15
2023-06-23T09:42:00.999Z,21.36
2023-06-23T09:44:35.053Z,21.47
2023-06-23T09:47:04.264Z,21.39
2023-06-23T09:49:38.658Z,21.77
2023-06-23T09:52:06.965Z,21.91
2023-06-23T09:54:34.663Z,22.04
2023-06-23T09:57:06.694Z,22.04
2023-06-23T09:59:33.319Z,22.09
2023-06-23T10:01:59.963Z,22.22
2023-06-23T10:04:30.048Z,22.41
2023-06-23T10:06:57.547Z,22.52
2023-06-23T10:09:25.268Z,22.30
2023-06-23T10:11:52.954Z,22.42
2023-06-23T10:14:19.728Z,22.32
2023-06-23T10:16:46.310Z,22.50
2023-06-23T10:19:13.687Z,22.54
2023-06-23T10:21:43.799Z,22.73
2023-06-23T10:24:14.773Z,22.58
2023-06-23T10:26:42.856Z,22.75
2023-06-23T10:29:13.899Z,22.64
2023-06-23T10:31:41.774Z,22.89
2023-06-23T10:34:12.556Z,22.49
2023-06-23T10:36:43.681Z,22.98
2023-06-23T10:39:11.858Z,22.84
2023-06-23T10:41:40.331Z,22.91
2023-06-23T10:44:07.990Z,23.06
2023-06-23T10:46:35.040Z,23.05
2023-06-23T10:49:02.421Z,23.10
2023-06-23T10:51:29.624Z,23.28
2023-06-23T10:53:59.787Z,23.30
2023-06-23T10:56:33.708Z,23.29
2023-06-23T10:59:00.779Z,23.34
2023-06-23T11:01:27.467Z,23.14
2023-06-23T11:03:58.484Z,23.40
2023-06-23T11:06:30.001Z,23.13
2023-06-23T11:08:58.029Z,23.24
2023-06-23T11:11:32.728Z,23.32
2023-06-23T11:13:59.546Z,23.44
2023-06-23T11:16:28.869Z,23.96
2023-06-23T11:18:57.797Z,23.74
2023-06-23T11:21:31.486Z,24.00
2023-06-23T11:24:13.719Z,23.73
2023-06-23T11:26:44.695Z,23.79
2023-06-23T11:29:12.225Z,23.92
2023-06-23T11:32:10.883Z,23.38
2023-06-23T11:34:50.236Z,23.32
2023-06-23T11:37:17.531Z,23.63
2023-06-23T11:39:45.622Z,23.52
2023-06-23T11:42:12.432Z,23.66
2023-06-23T11:44:39.244Z,23.37
2023-06-23T11:47:06.399Z,23.79
2023-06-23T11:49:33.173Z,23.93
2023-06-23T11:52:04.622Z,24.11
2023-06-23T11:54:34.699Z,23.88
2023-06-23T11:57:03.568Z,24.13
2023-06-23T11:59:35.227Z,24.41
2023-06-23T12:02:07.178Z,24.25
2023-06-23T12:04:34.628Z,24.04
2023-06-23T12:07:05.100Z,23.60
2023-06-23T12:09:32.657Z,23.62
2023-06-23T12:12:00.151Z,23.56
2023-06-23T12:14:34.996Z,23.99
2023-06-23T12:17:06.963Z,24.26
2023-06-23T12:19:34.116Z,23.83
2023-06-23T12:22:01.070Z,24.22
2023-06-23T12:24:30.354Z,24.29
2023-06-23T12:27:00.382Z,24.11
2023-06-23T12:29:30.401Z,24.69
2023-06-23T12:32:00.414Z,24.54
2023-06-23T12:34:31.174Z,24.04
2023-06-23T12:37:02.967Z,24.23
2023-06-23T12:39:30.407Z,23.97
2023-06-23T12:41:57.627Z,24.33
2023-06-23T12:44:25.304Z,24.23
2023-06-23T12:46:59.626Z,24.96
2023-06-23T12:49:30.323Z,24.11
2023-06-23T12:51:57.088Z,24.08
2023-06-23T12:54:26.599Z,24.01
2023-06-23T12:56:56.704Z,24.56
2023-06-23T12:59:23.394Z,24.34
2023-06-23T13:01:55.005Z,24.49
2023-06-23T13:04:23.670Z,24.39
2023-06-23T13:06:50.634Z,24.60
2023-06-23T13:09:17.867Z,24.86
2023-06-23T13:11:47.697Z,24.82
2023-06-23T13:14:18.936Z,24.29
2023-06-23T13:16:45.453Z,23.59
2023-06-23T13:19:12.184Z,23.72
2023-06-23T13:21:40.358Z,23.37
2023-06-23T13:24:07.253Z,22.97
2023-06-23T13:26:34.024Z,23.93
2023-06-23T13:29:02.882Z,23.91
2023-06-23T13:31:29.618Z,24.42
2023-06-23T13:33:59.614Z,24.05
2023-06-23T13:36:43.136Z,23.42
2023-06-23T13:39:31.814Z,23.42
2023-06-23T13:45:56.406Z,24.43
2023-06-23T13:48:27.051Z,24.17
2023-06-23T13:50:53.711Z,24.07
2023-06-23T13:53:20.570Z,24.39
2023-06-23T13:55:48.562Z,24.88
2023-06-23T13:58:15.154Z,24.56
2023-06-23T14:00:41.737Z,24.30
2023-06-23T14:03:08.493Z,24.51
2023-06-23T14:05:51.658Z,24.83
2023-06-23T14:08:19.476Z,23.75
2023-06-23T14:10:46.074Z,24.63
2023-06-23T14:13:14.008Z,24.36
2023-06-23T14:15:40.583Z,24.55
2023-06-23T14:18:07.347Z,24.43
2023-06-23T14:20:34.342Z,24.96
2023-06-23T14:23:00.963Z,24.49
2023-06-23T14:25:27.722Z,24.39
2023-06-23T14:27:54.245Z,23.90
2023-06-23T14:30:22.187Z,23.87
2023-06-23T14:32:48.898Z,23.84
2023-06-23T14:35:16.972Z,24.17
2023-06-23T14:37:43.577Z,24.37
2023-06-23T14:40:10.864Z,24.13
2023-06-23T14:42:37.483Z,24.08
2023-06-23T14:45:04.669Z,24.73
2023-06-23T14:47:32.719Z,24.33
2023-06-23T14:49:59.288Z,23.36
2023-06-23T14:52:25.967Z,23.74
2023-06-23T14:54:52.520Z,23.23
2023-06-23T14:57:19.104Z,24.14
2023-06-23T14:59:45.671Z,23.66
2023-06-23T15:02:12.492Z,23.67
2023-06-23T15:04:40.647Z,23.82
2023-06-23T15:07:07.571Z,23.27
2023-06-23T15:09:34.482Z,23.08
2023-06-23T15:12:01.194Z,23.23
2023-06-23T15:14:27.911Z,22.46
2023-06-23T15:16:54.660Z,22.29
2023-06-23T15:19:22.442Z,22.52
2023-06-23T15:21:50.519Z,23.72
2023-06-23T15:24:17.375Z,23.64
2023-06-23T15:26:44.141Z,24.15
2023-06-23T15:29:10.874Z,23.70
2023-06-23T15:31:37.895Z,23.59
2023-06-23T15:34:05.509Z,23.27
2023-06-23T15:36:34.039Z,23.77
2023-06-23T15:39:02.395Z,23.12
2023-06-23T15:41:29.171Z,23.19
2023-06-23T15:43:56.084Z,23.21
2023-06-23T15:46:22.782Z,23.26
2023-06-23T15:48:49.530Z,22.79
2023-06-23T15:51:16.468Z,22.60
2023-06-23T15:53:43.261Z,22.40
2023-06-23T15:56:11.491Z,22.53
2023-06-23T15:58:38.299Z,22.27
2023-06-23T16:01:04.874Z,21.92
2023-06-23T16:03:31.616Z,22.45
2023-06-23T16:05:58.247Z,22.49
2023-06-23T16:08:24.956Z,22.49
2023-06-23T16:10:51.530Z,22.28
2023-06-23T16:13:19.506Z,21.95
2023-06-23T16:15:46.119Z,21.46
2023-06-23T16:18:12.748Z,21.40
2023-06-23T16:20:40.395Z,21.97
2023-06-23T16:23:06.946Z,21.52
2023-06-23T16:25:33.706Z,21.27
2023-06-23T16:28:01.895Z,21.51
2023-06-23T16:30:31.573Z,21.81
2023-06-23T16:32:58.281Z,21.86
2023-06-23T16:35:24.921Z,21.59
2023-06-23T16:37:51.522Z,22.53
2023-06-23T16:40:18.135Z,22.31
2023-06-23T16:42:44.806Z,22.14
2023-06-23T16:45:11.370Z,22.54
2023-06-23T16:47:45.369Z,22.24
2023-06-23T16:50:12.477Z,22.43
2023-06-23T16:52:41.051Z,22.01
2023-06-23T16:55:08.228Z,22.13
2023-06-23T16:57:34.966Z,22.18
2023-06-23T17:00:03.402Z,22.17
2023-06-23T17:02:30.117Z,22.01
2023-06-23T17:04:58.147Z,21.92
2023-06-23T17:07:24.729Z,22.15
2023-06-23T17:09:51.425Z,22.20
2023-06-23T17:12:19.568Z,21.65
2023-06-23T17:14:46.767Z,21.81
2023-06-23T17:17:13.584Z,21.68
2023-06-23T17:19:40.187Z,21.72
2023-06-23T17:22:08.323Z,21.78
2023-06-23T17:24:34.968Z,21.48
2023-06-23T17:27:01.536Z,21.23
2023-06-23T17:29:28.218Z,21.06
2023-06-23T17:31:55.490Z,20.41
2023-06-23T17:34:22.077Z,20.52
2023-06-23T17:36:48.639Z,20.20
2023-06-23T17:39:16.631Z,20.17
2023-06-23T17:41:43.184Z,20.72
2023-06-23T17:44:09.789Z,20.19
2023-06-23T17:46:36.480Z,20.12
2023-06-23T17:49:03.264Z,20.07
2023-06-23T17:51:29.968Z,20.07
2023-06-23T17:53:56.520Z,20.27
2023-06-23T17:56:24.678Z,20.49
2023-06-23T17:58:51.262Z,20.48
2023-06-23T18:01:18.061Z,20.41
2023-06-23T18:03:44.900Z,20.57
2023-06-23T18:06:11.561Z,20.05
2023-06-23T18:08:38.134Z,20.09
2023-06-23T18:11:04.759Z,20.02
2023-06-23T18:13:32.928Z,20.34
2023-06-23T18:15:59.708Z,20.35
2023-06-23T18:18:26.323Z,19.90
2023-06-23T18:20:52.905Z,19.95
2023-06-23T18:23:19.469Z,19.92
2023-06-23T18:25:46.031Z,19.74
2023-06-23T18:28:13.289Z,19.68
2023-06-23T18:30:41.467Z,19.83
2023-06-23T18:33:08.132Z,19.84
2023-06-23T18:35:34.734Z,19.76
2023-06-23T18:38:01.310Z,19.94
2023-06-23T18:40:27.889Z,19.67
2023-06-23T18:42:54.551Z,19.73
2023-06-23T18:45:21.209Z,19.67
2023-06-23T18:47:49.367Z,19.79
2023-06-23T18:50:16.017Z,19.83
2023-06-23T18:52:42.668Z,20.05
2023-06-23T18:55:09.913Z,19.93
2023-06-23T18:57:36.617Z,20.04
2023-06-23T19:00:04.083Z,19.72
2023-06-23T19:02:31.733Z,19.71
2023-06-23T19:04:59.773Z,19.64
2023-06-23T19:07:26.559Z,19.70
2023-06-23T19:09:53.234Z,19.49
2023-06-23T19:12:21.180Z,19.43
2023-06-23T19:14:47.790Z,19.42
2023-06-23T19:17:14.412Z,19.39
2023-06-23T19:19:41.408Z,19.43
2023-06-23T19:22:09.895Z,19.52
2023-06-23T19:24:37.302Z,19.25
2023-06-23T19:27:05.065Z,19.52
2023-06-23T19:29:31.641Z,19.21
2023-06-23T19:31:58.241Z,19.51
2023-06-23T19:34:24.805Z,19.46
2023-06-23T19:36:51.411Z,19.44
2023-06-23T19:39:19.840Z,19.31
2023-06-23T19:41:46.618Z,19.32
2023-06-23T19:44:14.910Z,19.30
2023-06-23T19:46:42.104Z,19.36
2023-06-23T19:49:09.772Z,19.15
2023-06-23T19:51:36.354Z,19.37
2023-06-23T19:54:03.554Z,19.22
2023-06-23T19:56:31.746Z,19.16
2023-06-23T19:58:58.407Z,19.25
2023-06-23T20:01:25.091Z,19.14
2023-06-23T20:03:51.666Z,19.41
2023-06-23T20:06:18.347Z,19.15
2023-06-23T20:08:46.298Z,18.96
2023-06-23T20:11:13.168Z,19.00
2023-06-23T20:13:41.182Z,18.79
2023-06-23T20:16:07.920Z,18.68
2023-06-23T20:18:34.662Z,18.91
2023-06-23T20:21:01.281Z,18.65
2023-06-23T20:23:27.858Z,18.72
2023-06-23T20:25:54.436Z,18.80
2023-06-23T20:28:21.009Z,18.65
2023-06-23T20:30:49.096Z,18.66
2023-06-23T20:33:15.923Z,18.54
2023-06-23T20:35:43.269Z,18.49
2023-06-23T20:38:09.953Z,18.73
2023-06-23T20:40:36.945Z,18.94
2023-06-23T20:43:03.820Z,18.67
2023-06-23T20:45:30.543Z,18.79
2023-06-23T20:47:58.660Z,18.50
2023-06-23T20:50:25.357Z,18.61
2023-06-23T20:52:52.205Z,18.64
2023-06-23T20:55:18.763Z,18.13
2023-06-23T20:57:45.371Z,17.94
2023-06-23T21:00:13.257Z,17.82
2023-06-23T21:02:39.931Z,17.90
2023-06-23T21:05:08.897Z,17.93
2023-06-23T21:07:36.197Z,18.00
2023-06-23T21:10:09.796Z,18.50
2023-06-23T21:12:46.178Z,18.52
2023-06-23T21:15:12.754Z,18.47
2023-06-23T21:17:39.872Z,18.60
2023-06-23T21:20:11.744Z,18.36
2023-06-23T21:22:38.568Z,18.24
2023-06-23T21:25:05.609Z,18.31
2023-06-23T21:27:32.232Z,18.19
2023-06-23T21:29:59.630Z,18.18
2023-06-23T21:32:26.756Z,17.89
2023-06-23T21:34:53.305Z,17.97
2023-06-23T21:37:21.301Z,18.12
2023-06-23T21:39:48.012Z,18.08
2023-06-23T21:42:14.712Z,18.21
2023-06-23T21:44:42.064Z,18.28
2023-06-23T21:47:08.910Z,18.33
2023-06-23T21:49:35.496Z,18.31
2023-06-23T21:52:02.097Z,18.22
2023-06-23T21:54:30.074Z,18.31
2023-06-23T21:56:56.818Z,18.36
2023-06-23T21:59:23.421Z,18.31
2023-06-23T22:01:50.482Z,18.41
2023-06-23T22:04:17.211Z,18.36
2023-06-23T22:06:44.167Z,18.17
2023-06-23T22:09:10.815Z,18.22
2023-06-23T22:11:41.241Z,18.17
2023-06-23T22:14:07.874Z,18.17
2023-06-23T22:16:34.522Z,18.01
2023-06-23T22:19:01.221Z,18.13
2023-06-23T22:21:27.981Z,18.12
2023-06-23T22:23:54.593Z,18.03
2023-06-23T22:26:21.295Z,18.01
2023-06-23T22:28:49.337Z,17.95
2023-06-23T22:31:16.704Z,17.82
2023-06-23T22:33:43.480Z,17.79
2023-06-23T22:36:10.117Z,17.61
2023-06-23T22:38:36.988Z,17.71
2023-06-23T22:41:03.750Z,17.86
2023-06-23T22:43:30.402Z,17.60
2023-06-23T22:45:58.681Z,17.64
2023-06-23T22:48:25.308Z,17.13
2023-06-23T22:50:51.927Z,17.34
2023-06-23T22:53:18.519Z,17.45
2023-06-23T22:55:45.226Z,17.09
2023-06-23T22:58:11.902Z,17.29
2023-06-23T23:00:38.759Z,17.21
2023-06-23T23:03:06.919Z,17.32
2023-06-23T23:05:33.510Z,17.18
2023-06-23T23:08:00.165Z,17.22
2023-06-23T23:10:26.842Z,17.03
2023-06-23T23:12:53.562Z,17.00
2023-06-23T23:15:20.223Z,16.77
2023-06-23T23:17:46.936Z,16.82
2023-06-23T23:20:14.962Z,16.52
2023-06-23T23:22:42.032Z,16.35
2023-06-23T23:25:09.234Z,16.60
2023-06-23T23:27:35.821Z,16.50
2023-06-23T23:30:03.395Z,16.62
2023-06-23T23:32:30.021Z,16.41
2023-06-23T23:34:56.603Z,16.52
2023-06-23T23:37:24.565Z,16.47
2023-06-23T23:39:51.140Z,16.58
2023-06-23T23:42:17.745Z,16.50
2023-06-23T23:44:44.347Z,16.55
2023-06-23T23:47:10.989Z,16.58
2023-06-23T23:49:37.768Z,16.65
2023-06-23T23:52:05.054Z,16.27
2023-06-23T23:54:33.041Z,16.28
2023-06-23T23:56:59.946Z,16.42
2023-06-23T23:59:26.581Z,16.53
